sensor_id;sensor_type;location;lat;lon;timestamp;pressure;altitude;pressure_sealevel;temperature;humidity
75063;BME280;63981;51.052;13.754;2023-07-13T00:00:26;100068.19;;;22.03;48.28
75063;BME280;63981;51.052;13.754;2023-07-13T00:02:53;100067.56;;;22.01;48.10
75063;BME280;63981;51.052;13.754;2023-07-13T00:05:19;100054.00;;;21.94;48.30
75063;BME280;63981;51.052;13.754;2023-07-13T00:07:46;100055.63;;;22.03;48.09
75063;BME280;63981;51.052;13.754;2023-07-13T00:10:12;100059.97;;;22.04;48.46
75063;BME280;63981;51.052;13.754;2023-07-13T00:12:40;100059.31;;;22.02;48.00
75063;BME280;63981;51.052;13.754;2023-07-13T00:15:12;100076.38;;;22.10;48.89
75063;BME280;63981;51.052;13.754;2023-07-13T00:17:39;100074.91;;;22.07;48.50
75063;BME280;63981;51.052;13.754;2023-07-13T00:20:07;100076.56;;;22.08;48.72
75063;BME280;63981;51.052;13.754;2023-07-13T00:22:33;100079.91;;;22.10;48.31
75063;BME280;63981;51.052;13.754;2023-07-13T00:24:59;100090.66;;;22.10;48.93
75063;BME280;63981;51.052;13.754;2023-07-13T00:27:26;100097.22;;;22.07;49.01
75063;BME280;63981;51.052;13.754;2023-07-13T00:29:54;100108.59;;;22.10;48.81
75063;BME280;63981;51.052;13.754;2023-07-13T00:32:20;100116.66;;;22.10;49.01
75063;BME280;63981;51.052;13.754;2023-07-13T00:34:47;100120.72;;;22.05;48.12
75063;BME280;63981;51.052;13.754;2023-07-13T00:37:13;100133.66;;;22.02;48.81
75063;BME280;63981;51.052;13.754;2023-07-13T00:39:39;100143.41;;;21.95;49.52
75063;BME280;63981;51.052;13.754;2023-07-13T00:42:06;100151.84;;;21.84;49.98
75063;BME280;63981;51.052;13.754;2023-07-13T00:44:32;100159.81;;;21.69;53.35
75063;BME280;63981;51.052;13.754;2023-07-13T00:47:00;100173.50;;;21.43;54.25
75063;BME280;63981;51.052;13.754;2023-07-13T00:49:29;100167.66;;;21.23;55.88
75063;BME280;63981;51.052;13.754;2023-07-13T00:51:59;100151.97;;;20.96;55.97
75063;BME280;63981;51.052;13.754;2023-07-13T00:54:32;100162.03;;;20.77;57.51
75063;BME280;63981;51.052;13.754;2023-07-13T00:57:02;100152.00;;;20.55;59.19
75063;BME280;63981;51.052;13.754;2023-07-13T00:59:30;100158.81;;;20.41;60.64
75063;BME280;63981;51.052;13.754;2023-07-13T01:01:57;100140.06;;;20.25;60.04
75063;BME280;63981;51.052;13.754;2023-07-13T01:04:26;100137.72;;;20.14;60.94
75063;BME280;63981;51.052;13.754;2023-07-13T01:06:53;100119.47;;;20.01;61.44
75063;BME280;63981;51.052;13.754;2023-07-13T01:09:20;100078.34;;;19.94;62.22
75063;BME280;63981;51.052;13.754;2023-07-13T01:11:48;100087.88;;;19.96;62.36
75063;BME280;63981;51.052;13.754;2023-07-13T01:14:14;100083.16;;;19.90;63.59
75063;BME280;63981;51.052;13.754;2023-07-13T01:16:45;100106.56;;;19.88;64.77
75063;BME280;63981;51.052;13.754;2023-07-13T01:19:22;100124.78;;;19.85;65.32
75063;BME280;63981;51.052;13.754;2023-07-13T01:21:53;100121.91;;;19.78;64.80
75063;BME280;63981;51.052;13.754;2023-07-13T01:24:19;100125.09;;;19.73;64.82
75063;BME280;63981;51.052;13.754;2023-07-13T01:26:48;100121.53;;;19.57;65.30
75063;BME280;63981;51.052;13.754;2023-07-13T01:29:14;100125.63;;;19.43;65.62
75063;BME280;63981;51.052;13.754;2023-07-13T01:31:41;100123.91;;;19.34;65.96
75063;BME280;63981;51.052;13.754;2023-07-13T01:34:07;100126.88;;;19.23;66.58
75063;BME280;63981;51.052;13.754;2023-07-13T01:36:34;100123.03;;;19.25;66.37
75063;BME280;63981;51.052;13.754;2023-07-13T01:39:02;100128.22;;;19.27;66.34
75063;BME280;63981;51.052;13.754;2023-07-13T01:41:28;100125.06;;;19.31;66.31
75063;BME280;63981;51.052;13.754;2023-07-13T01:43:55;100119.75;;;19.39;66.39
75063;BME280;63981;51.052;13.754;2023-07-13T01:46:21;100123.63;;;19.45;67.05
75063;BME280;63981;51.052;13.754;2023-07-13T01:48:48;100126.97;;;19.47;67.57
75063;BME280;63981;51.052;13.754;2023-07-13T01:51:15;100133.50;;;19.53;67.17
75063;BME280;63981;51.052;13.754;2023-07-13T01:53:44;100128.88;;;19.55;66.24
75063;BME280;63981;51.052;13.754;2023-07-13T01:56:11;100123.69;;;19.53;67.46
75063;BME280;63981;51.052;13.754;2023-07-13T01:58:37;100120.00;;;19.54;67.57
75063;BME280;63981;51.052;13.754;2023-07-13T02:01:04;100115.78;;;19.52;67.83
75063;BME280;63981;51.052;13.754;2023-07-13T02:03:30;100117.78;;;19.50;67.94
75063;BME280;63981;51.052;13.754;2023-07-13T02:05:58;100113.78;;;19.45;68.19
75063;BME280;63981;51.052;13.754;2023-07-13T02:08:24;100114.94;;;19.43;68.33
75063;BME280;63981;51.052;13.754;2023-07-13T02:10:50;100122.78;;;19.44;68.24
75063;BME280;63981;51.052;13.754;2023-07-13T02:13:18;100115.94;;;19.42;68.26
75063;BME280;63981;51.052;13.754;2023-07-13T02:15:45;100114.41;;;19.39;68.14
75063;BME280;63981;51.052;13.754;2023-07-13T02:18:11;100108.72;;;19.34;68.39
75063;BME280;63981;51.052;13.754;2023-07-13T02:20:38;100107.19;;;19.32;68.67
75063;BME280;63981;51.052;13.754;2023-07-13T02:23:05;100116.06;;;19.32;68.29
75063;BME280;63981;51.052;13.754;2023-07-13T02:25:31;100115.22;;;19.32;69.11
75063;BME280;63981;51.052;13.754;2023-07-13T02:27:57;100119.06;;;19.29;69.36
75063;BME280;63981;51.052;13.754;2023-07-13T02:30:26;100124.41;;;19.29;69.10
75063;BME280;63981;51.052;13.754;2023-07-13T02:32:54;100122.25;;;19.33;69.12
75063;BME280;63981;51.052;13.754;2023-07-13T02:35:20;100130.09;;;19.34;68.83
75063;BME280;63981;51.052;13.754;2023-07-13T02:37:47;100121.72;;;19.29;69.31
75063;BME280;63981;51.052;13.754;2023-07-13T02:40:13;100130.88;;;19.27;69.97
75063;BME280;63981;51.052;13.754;2023-07-13T02:42:40;100132.38;;;19.21;69.50
75063;BME280;63981;51.052;13.754;2023-07-13T02:45:07;100135.72;;;19.23;70.04
75063;BME280;63981;51.052;13.754;2023-07-13T02:47:35;100140.88;;;19.17;70.55
75063;BME280;63981;51.052;13.754;2023-07-13T02:50:02;100132.63;;;19.10;70.76
75063;BME280;63981;51.052;13.754;2023-07-13T02:52:30;100132.47;;;19.11;71.32
75063;BME280;63981;51.052;13.754;2023-07-13T02:54:56;100130.81;;;19.10;71.41
75063;BME280;63981;51.052;13.754;2023-07-13T02:57:22;100134.63;;;19.08;70.72
75063;BME280;63981;51.052;13.754;2023-07-13T02:59:49;100131.97;;;19.08;70.80
75063;BME280;63981;51.052;13.754;2023-07-13T03:02:15;100142.97;;;19.05;71.50
75063;BME280;63981;51.052;13.754;2023-07-13T03:04:44;100150.31;;;19.03;71.52
75063;BME280;63981;51.052;13.754;2023-07-13T03:07:10;100142.47;;;19.01;71.09
75063;BME280;63981;51.052;13.754;2023-07-13T03:09:37;100137.13;;;19.01;71.64
75063;BME280;63981;51.052;13.754;2023-07-13T03:12:07;100146.59;;;18.96;71.01
75063;BME280;63981;51.052;13.754;2023-07-13T03:14:34;100134.31;;;18.85;70.60
75063;BME280;63981;51.052;13.754;2023-07-13T03:17:04;100141.34;;;18.86;70.66
75063;BME280;63981;51.052;13.754;2023-07-13T03:19:33;100141.88;;;18.90;70.89
75063;BME280;63981;51.052;13.754;2023-07-13T03:22:02;100137.06;;;18.93;70.45
75063;BME280;63981;51.052;13.754;2023-07-13T03:24:30;100138.72;;;18.94;71.02
75063;BME280;63981;51.052;13.754;2023-07-13T03:26:57;100145.59;;;18.97;70.84
75063;BME280;63981;51.052;13.754;2023-07-13T03:29:24;100143.44;;;19.00;71.38
75063;BME280;63981;51.052;13.754;2023-07-13T03:31:51;100151.81;;;19.05;71.38
75063;BME280;63981;51.052;13.754;2023-07-13T03:34:18;100144.44;;;18.99;71.62
75063;BME280;63981;51.052;13.754;2023-07-13T03:36:45;100148.09;;;18.98;71.18
75063;BME280;63981;51.052;13.754;2023-07-13T03:39:14;100149.06;;;18.89;71.68
75063;BME280;63981;51.052;13.754;2023-07-13T03:41:49;100155.28;;;18.98;71.53
75063;BME280;63981;51.052;13.754;2023-07-13T03:44:17;100142.56;;;18.92;71.13
75063;BME280;63981;51.052;13.754;2023-07-13T03:46:44;100166.63;;;19.00;71.44
75063;BME280;63981;51.052;13.754;2023-07-13T03:49:11;100159.16;;;19.03;71.41
75063;BME280;63981;51.052;13.754;2023-07-13T03:51:38;100161.53;;;19.06;70.99
75063;BME280;63981;51.052;13.754;2023-07-13T03:54:05;100168.22;;;19.10;70.77
75063;BME280;63981;51.052;13.754;2023-07-13T03:56:33;100163.09;;;19.17;70.66
75063;BME280;63981;51.052;13.754;2023-07-13T03:59:01;100167.75;;;19.15;71.08
75063;BME280;63981;51.052;13.754;2023-07-13T04:01:30;100171.09;;;19.17;70.81
75063;BME280;63981;51.052;13.754;2023-07-13T04:03:56;100175.28;;;19.20;71.64
75063;BME280;63981;51.052;13.754;2023-07-13T04:06:27;100183.47;;;19.18;71.81
75063;BME280;63981;51.052;13.754;2023-07-13T04:08:56;100192.84;;;19.22;71.39
75063;BME280;63981;51.052;13.754;2023-07-13T04:11:24;100192.50;;;19.25;71.97
75063;BME280;63981;51.052;13.754;2023-07-13T04:13:52;100194.25;;;19.34;71.64
75063;BME280;63981;51.052;13.754;2023-07-13T04:16:19;100197.81;;;19.43;70.55
75063;BME280;63981;51.052;13.754;2023-07-13T04:18:47;100185.97;;;19.45;69.28
75063;BME280;63981;51.052;13.754;2023-07-13T04:21:14;100196.59;;;19.63;69.53
75063;BME280;63981;51.052;13.754;2023-07-13T04:23:41;100198.44;;;19.63;69.53
75063;BME280;63981;51.052;13.754;2023-07-13T04:26:07;100196.91;;;19.60;69.68
75063;BME280;63981;51.052;13.754;2023-07-13T04:28:34;100196.59;;;19.63;69.52
75063;BME280;63981;51.052;13.754;2023-07-13T04:31:02;100192.44;;;19.69;69.12
75063;BME280;63981;51.052;13.754;2023-07-13T04:33:28;100193.47;;;19.76;68.45
75063;BME280;63981;51.052;13.754;2023-07-13T04:35:55;100202.34;;;19.77;68.62
75063;BME280;63981;51.052;13.754;2023-07-13T04:38:28;100198.03;;;19.84;68.41
75063;BME280;63981;51.052;13.754;2023-07-13T04:40:55;100198.56;;;19.95;68.04
75063;BME280;63981;51.052;13.754;2023-07-13T04:43:22;100205.75;;;19.95;66.99
75063;BME280;63981;51.052;13.754;2023-07-13T04:45:48;100192.84;;;19.90;67.46
75063;BME280;63981;51.052;13.754;2023-07-13T04:48:16;100201.56;;;19.92;67.00
75063;BME280;63981;51.052;13.754;2023-07-13T04:50:42;100212.78;;;19.96;67.49
75063;BME280;63981;51.052;13.754;2023-07-13T04:53:09;100206.75;;;19.94;67.64
75063;BME280;63981;51.052;13.754;2023-07-13T04:55:36;100199.03;;;19.83;67.32
75063;BME280;63981;51.052;13.754;2023-07-13T04:58:03;100212.88;;;19.78;67.59
75063;BME280;63981;51.052;13.754;2023-07-13T05:00:29;100215.19;;;19.73;67.72
75063;BME280;63981;51.052;13.754;2023-07-13T05:02:57;100219.72;;;19.72;67.21
75063;BME280;63981;51.052;13.754;2023-07-13T05:05:26;100215.41;;;19.80;67.79
75063;BME280;63981;51.052;13.754;2023-07-13T05:07:53;100215.25;;;19.89;67.01
75063;BME280;63981;51.052;13.754;2023-07-13T05:10:20;100210.94;;;19.96;65.17
75063;BME280;63981;51.052;13.754;2023-07-13T05:12:46;100217.34;;;20.12;65.43
75063;BME280;63981;51.052;13.754;2023-07-13T05:15:13;100211.19;;;20.19;64.42
75063;BME280;63981;51.052;13.754;2023-07-13T05:17:39;100219.72;;;20.31;63.55
75063;BME280;63981;51.052;13.754;2023-07-13T05:20:07;100213.06;;;20.35;63.70
75063;BME280;63981;51.052;13.754;2023-07-13T05:22:34;100210.69;;;20.40;62.71
75063;BME280;63981;51.052;13.754;2023-07-13T05:25:01;100212.75;;;20.54;62.18
75063;BME280;63981;51.052;13.754;2023-07-13T05:27:27;100211.91;;;20.70;61.73
75063;BME280;63981;51.052;13.754;2023-07-13T05:29:54;100205.22;;;20.82;60.12
75063;BME280;63981;51.052;13.754;2023-07-13T05:32:20;100209.59;;;20.91;59.51
75063;BME280;63981;51.052;13.754;2023-07-13T05:34:46;100212.09;;;21.01;58.12
75063;BME280;63981;51.052;13.754;2023-07-13T05:37:12;100208.94;;;20.98;58.31
75063;BME280;63981;51.052;13.754;2023-07-13T05:39:40;100211.59;;;21.06;57.91
75063;BME280;63981;51.052;13.754;2023-07-13T05:42:07;100224.66;;;21.01;58.46
75063;BME280;63981;51.052;13.754;2023-07-13T05:44:33;100218.81;;;20.97;58.60
75063;BME280;63981;51.052;13.754;2023-07-13T05:46:59;100219.47;;;20.91;57.63
75063;BME280;63981;51.052;13.754;2023-07-13T05:49:26;100222.13;;;20.83;58.61
75063;BME280;63981;51.052;13.754;2023-07-13T05:51:55;100221.16;;;20.84;58.08
75063;BME280;63981;51.052;13.754;2023-07-13T05:54:21;100212.44;;;20.90;58.97
75063;BME280;63981;51.052;13.754;2023-07-13T05:56:49;100217.44;;;21.09;59.17
75063;BME280;63981;51.052;13.754;2023-07-13T05:59:15;100196.84;;;21.02;58.34
75063;BME280;63981;51.052;13.754;2023-07-13T06:01:41;100216.78;;;21.15;59.02
75063;BME280;63981;51.052;13.754;2023-07-13T06:04:08;100208.06;;;21.13;59.30
75063;BME280;63981;51.052;13.754;2023-07-13T06:06:34;100209.91;;;21.13;59.31
75063;BME280;63981;51.052;13.754;2023-07-13T06:09:00;100203.19;;;21.17;59.77
75063;BME280;63981;51.052;13.754;2023-07-13T06:11:27;100215.94;;;21.15;59.96
75063;BME280;63981;51.052;13.754;2023-07-13T06:13:57;100219.09;;;21.18;59.73
75063;BME280;63981;51.052;13.754;2023-07-13T06:16:23;100218.28;;;21.18;59.84
75063;BME280;63981;51.052;13.754;2023-07-13T06:18:50;100229.50;;;21.13;60.07
75063;BME280;63981;51.052;13.754;2023-07-13T06:21:18;100226.31;;;21.18;59.55
75063;BME280;63981;51.052;13.754;2023-07-13T06:23:46;100233.38;;;21.27;57.60
75063;BME280;63981;51.052;13.754;2023-07-13T06:26:16;100232.16;;;21.46;58.22
75063;BME280;63981;51.052;13.754;2023-07-13T06:28:43;100235.66;;;21.63;58.09
75063;BME280;63981;51.052;13.754;2023-07-13T06:31:12;100225.03;;;21.77;57.02
75063;BME280;63981;51.052;13.754;2023-07-13T06:33:39;100234.66;;;21.95;56.55
75063;BME280;63981;51.052;13.754;2023-07-13T06:36:06;100231.50;;;21.91;56.93
75063;BME280;63981;51.052;13.754;2023-07-13T06:38:33;100236.88;;;21.91;57.28
75063;BME280;63981;51.052;13.754;2023-07-13T06:41:00;100209.38;;;21.89;57.20
75063;BME280;63981;51.052;13.754;2023-07-13T06:43:27;100233.97;;;22.09;57.24
75063;BME280;63981;51.052;13.754;2023-07-13T06:45:55;100237.44;;;22.18;57.33
75063;BME280;63981;51.052;13.754;2023-07-13T06:48:23;100238.41;;;22.25;55.22
75063;BME280;63981;51.052;13.754;2023-07-13T06:50:50;100230.00;;;22.28;56.67
75063;BME280;63981;51.052;13.754;2023-07-13T06:53:18;100246.41;;;22.33;57.06
75063;BME280;63981;51.052;13.754;2023-07-13T06:55:44;100256.97;;;22.34;55.65
75063;BME280;63981;51.052;13.754;2023-07-13T06:58:11;100247.53;;;22.38;55.24
75063;BME280;63981;51.052;13.754;2023-07-13T07:00:38;100260.56;;;22.50;55.53
75063;BME280;63981;51.052;13.754;2023-07-13T07:03:06;100258.22;;;22.55;55.16
75063;BME280;63981;51.052;13.754;2023-07-13T07:05:34;100251.56;;;22.65;54.89
75063;BME280;63981;51.052;13.754;2023-07-13T07:08:00;100261.38;;;22.81;53.81
75063;BME280;63981;51.052;13.754;2023-07-13T07:10:29;100262.72;;;22.85;54.79
75063;BME280;63981;51.052;13.754;2023-07-13T07:12:56;100271.75;;;22.92;54.89
75063;BME280;63981;51.052;13.754;2023-07-13T07:15:22;100278.53;;;23.03;53.01
75063;BME280;63981;51.052;13.754;2023-07-13T07:17:49;100275.25;;;23.31;52.43
75063;BME280;63981;51.052;13.754;2023-07-13T07:20:15;100269.34;;;23.35;51.97
75063;BME280;63981;51.052;13.754;2023-07-13T07:22:43;100262.75;;;23.52;50.76
75063;BME280;63981;51.052;13.754;2023-07-13T07:25:09;100270.31;;;23.57;51.31
75063;BME280;63981;51.052;13.754;2023-07-13T07:27:35;100275.19;;;23.39;50.33
75063;BME280;63981;51.052;13.754;2023-07-13T07:30:02;100266.66;;;23.35;52.18
75063;BME280;63981;51.052;13.754;2023-07-13T07:32:29;100265.50;;;23.30;49.64
75063;BME280;63981;51.052;13.754;2023-07-13T07:34:56;100261.47;;;23.34;50.63
75063;BME280;63981;51.052;13.754;2023-07-13T07:37:23;100256.47;;;23.45;51.63
75063;BME280;63981;51.052;13.754;2023-07-13T07:39:50;100265.16;;;23.70;50.26
75063;BME280;63981;51.052;13.754;2023-07-13T07:42:17;100263.81;;;23.96;50.02
75063;BME280;63981;51.052;13.754;2023-07-13T07:44:43;100258.28;;;24.33;49.26
75063;BME280;63981;51.052;13.754;2023-07-13T07:47:09;100260.97;;;24.69;48.18
75063;BME280;63981;51.052;13.754;2023-07-13T07:49:36;100261.94;;;25.05;46.36
75063;BME280;63981;51.052;13.754;2023-07-13T07:52:03;100259.56;;;25.16;45.19
75063;BME280;63981;51.052;13.754;2023-07-13T07:54:29;100259.97;;;25.13;47.21
75063;BME280;63981;51.052;13.754;2023-07-13T07:56:57;100268.19;;;25.05;44.10
75063;BME280;63981;51.052;13.754;2023-07-13T07:59:23;100264.16;;;25.22;43.91
75063;BME280;63981;51.052;13.754;2023-07-13T08:01:49;100264.03;;;25.31;44.13
75063;BME280;63981;51.052;13.754;2023-07-13T08:04:16;100259.66;;;25.29;43.75
75063;BME280;63981;51.052;13.754;2023-07-13T08:06:42;100248.31;;;25.13;42.01
75063;BME280;63981;51.052;13.754;2023-07-13T08:09:09;100261.44;;;25.16;42.45
75063;BME280;63981;51.052;13.754;2023-07-13T08:11:36;100261.88;;;25.19;44.53
75063;BME280;63981;51.052;13.754;2023-07-13T08:14:03;100272.41;;;25.42;42.34
75063;BME280;63981;51.052;13.754;2023-07-13T08:16:30;100272.91;;;25.52;41.76
75063;BME280;63981;51.052;13.754;2023-07-13T08:18:59;100276.88;;;25.56;43.44
75063;BME280;63981;51.052;13.754;2023-07-13T08:21:26;100280.72;;;25.69;40.81
75063;BME280;63981;51.052;13.754;2023-07-13T08:23:52;100278.31;;;25.87;41.66
75063;BME280;63981;51.052;13.754;2023-07-13T08:26:18;100276.59;;;26.14;40.32
75063;BME280;63981;51.052;13.754;2023-07-13T08:28:45;100275.84;;;26.33;41.61
75063;BME280;63981;51.052;13.754;2023-07-13T08:31:13;100272.97;;;26.41;41.93
75063;BME280;63981;51.052;13.754;2023-07-13T08:33:40;100266.19;;;26.65;40.88
75063;BME280;63981;51.052;13.754;2023-07-13T08:36:07;100273.13;;;27.01;39.75
75063;BME280;63981;51.052;13.754;2023-07-13T08:38:33;100280.81;;;27.30;40.28
75063;BME280;63981;51.052;13.754;2023-07-13T08:41:09;100274.13;;;27.46;38.02
75063;BME280;63981;51.052;13.754;2023-07-13T08:43:37;100264.88;;;28.00;37.70
75063;BME280;63981;51.052;13.754;2023-07-13T08:46:08;100279.09;;;27.89;38.58
75063;BME280;63981;51.052;13.754;2023-07-13T08:48:41;100274.94;;;27.80;37.82
75063;BME280;63981;51.052;13.754;2023-07-13T08:51:16;100268.44;;;28.01;37.38
75063;BME280;63981;51.052;13.754;2023-07-13T08:53:49;100266.50;;;28.14;37.62
75063;BME280;63981;51.052;13.754;2023-07-13T08:56:19;100266.28;;;28.16;36.47
75063;BME280;63981;51.052;13.754;2023-07-13T08:58:48;100267.72;;;28.12;36.58
75063;BME280;63981;51.052;13.754;2023-07-13T09:01:22;100270.53;;;27.92;37.46
75063;BME280;63981;51.052;13.754;2023-07-13T09:03:57;100280.63;;;27.65;36.25
75063;BME280;63981;51.052;13.754;2023-07-13T09:06:31;100280.59;;;27.45;36.28
75063;BME280;63981;51.052;13.754;2023-07-13T09:09:02;100274.59;;;27.37;38.17
75063;BME280;63981;51.052;13.754;2023-07-13T09:11:41;100280.81;;;27.30;36.57
75063;BME280;63981;51.052;13.754;2023-07-13T09:14:26;100287.50;;;27.28;38.64
75063;BME280;63981;51.052;13.754;2023-07-13T09:17:00;100280.19;;;27.61;38.13
75063;BME280;63981;51.052;13.754;2023-07-13T09:19:32;100286.41;;;27.82;36.75
75063;BME280;63981;51.052;13.754;2023-07-13T09:22:01;100292.97;;;28.12;36.16
75063;BME280;63981;51.052;13.754;2023-07-13T09:24:36;100284.97;;;28.37;37.14
75063;BME280;63981;51.052;13.754;2023-07-13T09:27:12;100294.56;;;28.40;36.89
75063;BME280;63981;51.052;13.754;2023-07-13T09:29:45;100295.94;;;28.56;35.38
75063;BME280;63981;51.052;13.754;2023-07-13T09:32:14;100295.75;;;28.50;34.05
75063;BME280;63981;51.052;13.754;2023-07-13T09:34:51;100294.34;;;28.41;35.39
75063;BME280;63981;51.052;13.754;2023-07-13T09:37:19;100295.66;;;28.12;36.63
75063;BME280;63981;51.052;13.754;2023-07-13T09:39:48;100298.94;;;27.76;37.18
75063;BME280;63981;51.052;13.754;2023-07-13T09:42:18;100293.72;;;27.75;36.65
75063;BME280;63981;51.052;13.754;2023-07-13T09:44:52;100293.03;;;27.92;33.67
75063;BME280;63981;51.052;13.754;2023-07-13T09:47:20;100298.63;;;28.04;35.52
75063;BME280;63981;51.052;13.754;2023-07-13T09:49:56;100307.66;;;27.85;36.59
75063;BME280;63981;51.052;13.754;2023-07-13T09:52:25;100313.13;;;27.65;35.91
75063;BME280;63981;51.052;13.754;2023-07-13T09:54:53;100317.66;;;27.45;35.24
75063;BME280;63981;51.052;13.754;2023-07-13T09:57:27;100314.56;;;27.48;35.49
75063;BME280;63981;51.052;13.754;2023-07-13T09:59:55;100313.25;;;27.97;33.97
75063;BME280;63981;51.052;13.754;2023-07-13T10:02:27;100321.44;;;28.48;33.72
75063;BME280;63981;51.052;13.754;2023-07-13T10:05:02;100308.69;;;28.48;32.85
75063;BME280;63981;51.052;13.754;2023-07-13T10:07:30;100292.25;;;28.75;33.19
75063;BME280;63981;51.052;13.754;2023-07-13T10:09:58;100313.22;;;28.99;31.61
75063;BME280;63981;51.052;13.754;2023-07-13T10:12:28;100306.13;;;29.30;30.87
75063;BME280;63981;51.052;13.754;2023-07-13T10:14:58;100307.97;;;29.29;31.01
75063;BME280;63981;51.052;13.754;2023-07-13T10:17:29;100316.00;;;28.93;31.04
75063;BME280;63981;51.052;13.754;2023-07-13T10:20:01;100314.94;;;28.56;31.03
75063;BME280;63981;51.052;13.754;2023-07-13T10:22:36;100312.25;;;28.49;31.94
75063;BME280;63981;51.052;13.754;2023-07-13T10:25:16;100315.44;;;28.39;31.95
75063;BME280;63981;51.052;13.754;2023-07-13T10:27:44;100313.66;;;28.58;34.63
75063;BME280;63981;51.052;13.754;2023-07-13T10:30:14;100311.41;;;28.87;34.30
75063;BME280;63981;51.052;13.754;2023-07-13T10:32:43;100317.16;;;29.03;33.78
75063;BME280;63981;51.052;13.754;2023-07-13T10:35:13;100316.00;;;28.93;32.76
75063;BME280;63981;51.052;13.754;2023-07-13T10:37:45;100315.34;;;28.91;32.87
75063;BME280;63981;51.052;13.754;2023-07-13T10:40:18;100301.75;;;28.97;33.81
75063;BME280;63981;51.052;13.754;2023-07-13T10:42:48;100309.97;;;29.41;32.53
75063;BME280;63981;51.052;13.754;2023-07-13T10:45:18;100306.44;;;30.08;31.67
75063;BME280;63981;51.052;13.754;2023-07-13T10:47:46;100302.50;;;30.82;29.24
75063;BME280;63981;51.052;13.754;2023-07-13T10:50:17;100291.66;;;30.94;30.23
75063;BME280;63981;51.052;13.754;2023-07-13T10:52:47;100297.94;;;30.95;30.24
75063;BME280;63981;51.052;13.754;2023-07-13T10:55:37;100292.69;;;31.58;27.48
75063;BME280;63981;51.052;13.754;2023-07-13T10:58:12;100295.44;;;31.47;27.12
75063;BME280;63981;51.052;13.754;2023-07-13T11:00:46;100287.75;;;31.90;25.94
75063;BME280;63981;51.052;13.754;2023-07-13T11:03:13;100294.34;;;32.06;26.73
75063;BME280;63981;51.052;13.754;2023-07-13T11:05:42;100278.13;;;31.76;27.26
75063;BME280;63981;51.052;13.754;2023-07-13T11:08:16;100279.56;;;31.79;26.42
75063;BME280;63981;51.052;13.754;2023-07-13T11:10:49;100285.47;;;31.29;28.05
75063;BME280;63981;51.052;13.754;2023-07-13T11:13:38;100288.44;;;31.39;25.51
75063;BME280;63981;51.052;13.754;2023-07-13T11:16:13;100278.66;;;34.05;24.19
75063;BME280;63981;51.052;13.754;2023-07-13T11:18:39;100281.31;;;33.83;22.52
75063;BME280;63981;51.052;13.754;2023-07-13T11:21:15;100270.56;;;36.17;20.67
75063;BME280;63981;51.052;13.754;2023-07-13T11:23:42;100267.31;;;39.26;18.29
75063;BME280;63981;51.052;13.754;2023-07-13T11:26:37;100277.09;;;37.04;20.89
75063;BME280;63981;51.052;13.754;2023-07-13T11:29:08;100274.97;;;35.61;21.76
75063;BME280;63981;51.052;13.754;2023-07-13T11:31:35;100273.50;;;36.73;22.19
75063;BME280;63981;51.052;13.754;2023-07-13T11:34:01;100263.94;;;39.34;19.15
75063;BME280;63981;51.052;13.754;2023-07-13T11:36:32;100275.13;;;40.95;18.11
75063;BME280;63981;51.052;13.754;2023-07-13T11:39:05;100259.47;;;43.14;15.47
75063;BME280;63981;51.052;13.754;2023-07-13T11:41:43;100263.06;;;43.45;15.42
75063;BME280;63981;51.052;13.754;2023-07-13T11:44:13;100269.50;;;41.00;18.15
75063;BME280;63981;51.052;13.754;2023-07-13T11:46:44;100264.25;;;40.85;16.75
75063;BME280;63981;51.052;13.754;2023-07-13T11:49:15;100265.84;;;40.10;19.41
75063;BME280;63981;51.052;13.754;2023-07-13T11:51:44;100265.34;;;38.58;18.96
75063;BME280;63981;51.052;13.754;2023-07-13T11:54:25;100269.38;;;35.93;20.21
75063;BME280;63981;51.052;13.754;2023-07-13T11:56:54;100267.78;;;35.17;20.88
75063;BME280;63981;51.052;13.754;2023-07-13T11:59:21;100268.72;;;33.60;24.01
75063;BME280;63981;51.052;13.754;2023-07-13T12:01:53;100260.59;;;37.25;19.84
75063;BME280;63981;51.052;13.754;2023-07-13T12:04:23;100263.84;;;39.92;18.47
75063;BME280;63981;51.052;13.754;2023-07-13T12:07:04;100257.06;;;41.16;17.96
75063;BME280;63981;51.052;13.754;2023-07-13T12:09:30;100251.47;;;39.13;17.96
75063;BME280;63981;51.052;13.754;2023-07-13T12:11:57;100252.13;;;41.46;17.13
75063;BME280;63981;51.052;13.754;2023-07-13T12:14:27;100257.06;;;42.54;16.83
75063;BME280;63981;51.052;13.754;2023-07-13T12:16:53;100250.56;;;42.22;16.71
75063;BME280;63981;51.052;13.754;2023-07-13T12:19:22;100242.31;;;42.67;15.78
75063;BME280;63981;51.052;13.754;2023-07-13T12:21:50;100254.56;;;39.35;18.06
75063;BME280;63981;51.052;13.754;2023-07-13T12:24:23;100247.06;;;39.89;18.22
75063;BME280;63981;51.052;13.754;2023-07-13T12:26:51;100236.53;;;43.00;15.44
75063;BME280;63981;51.052;13.754;2023-07-13T12:29:18;100254.28;;;41.63;17.04
75063;BME280;63981;51.052;13.754;2023-07-13T12:31:46;100239.09;;;42.51;14.83
75063;BME280;63981;51.052;13.754;2023-07-13T12:34:14;100246.28;;;43.90;15.29
75063;BME280;63981;51.052;13.754;2023-07-13T12:36:46;100239.97;;;44.24;14.16
75063;BME280;63981;51.052;13.754;2023-07-13T12:39:16;100244.97;;;41.12;15.88
75063;BME280;63981;51.052;13.754;2023-07-13T12:41:46;100236.41;;;38.12;18.06
75063;BME280;63981;51.052;13.754;2023-07-13T12:44:15;100251.38;;;36.32;20.53
75063;BME280;63981;51.052;13.754;2023-07-13T12:46:58;100252.25;;;36.33;20.44